Time;durP1;ratioP1;P1;durP2;ratioP2;P2;SDS_P1;SDS_P2;PMS_P1;PMS_P2;Temp;Humidity;BMP_temperature;BMP_pressure;BME280_temperature;BME280_humidity;BME280_pressure;Samples;Min_cycle;Max_cycle;Signal;HPM_P1;HPM_P2
2021/12/03 00:01:14;;;;;;;3.43;2.50;;;;;;;2.17;90.84;98092.09;5010220;28;103213;-67
2021/12/03 00:03:42;;;;;;;4.50;3.07;;;;;;;2.17;90.99;98086.03;5011527;28;102562;-67
2021/12/03 00:06:11;;;;;;;3.77;2.93;;;;;;;2.08;91.50;98099.50;4992330;28;104024;-67
2021/12/03 00:08:40;;;;;;;4.03;3.03;;;;;;;2.05;91.88;98099.66;4993916;28;103097;-67
2021/12/03 00:11:11;;;;;;;5.20;3.17;;;;;;;2.02;91.02;98107.63;5009860;28;103312;-67
2021/12/03 00:13:40;;;;;;;4.63;3.20;;;;;;;2.02;92.19;98120.66;5011112;28;102633;-67
2021/12/03 00:16:10;;;;;;;6.17;2.97;;;;;;;2.12;92.10;98124.50;5008471;28;102710;-67
2021/12/03 00:18:39;;;;;;;4.53;3.73;;;;;;;2.09;91.16;98124.63;4997636;28;103222;-67
2021/12/03 00:21:11;;;;;;;7.00;4.23;;;;;;;2.07;90.91;98132.53;5011328;28;103211;-65
2021/12/03 00:23:41;;;;;;;4.80;3.40;;;;;;;2.04;91.83;98142.25;5014693;28;102645;-65
2021/12/03 00:26:09;;;;;;;4.40;3.00;;;;;;;2.05;91.08;98143.97;4993047;28;102980;-65
2021/12/03 00:28:38;;;;;;;3.73;3.43;;;;;;;2.15;91.73;98160.84;5009976;28;104646;-66
2021/12/03 00:31:07;;;;;;;5.77;4.30;;;;;;;2.13;91.04;98160.06;5009879;28;103245;-66
2021/12/03 00:33:37;;;;;;;5.53;3.50;;;;;;;2.11;91.61;98167.94;5009663;28;103507;-66
2021/12/03 00:36:08;;;;;;;6.03;4.20;;;;;;;2.03;91.29;98164.00;4990684;28;103680;-68
2021/12/03 00:38:43;;;;;;;7.07;3.60;;;;;;;2.04;91.91;98168.31;5012503;28;103336;-68
2021/12/03 00:41:18;;;;;;;3.60;3.13;;;;;;;2.09;92.53;98166.34;4990222;28;103195;-64
2021/12/03 00:43:48;;;;;;;4.63;3.50;;;;;;;2.12;91.78;98172.25;4986586;28;103148;-64
2021/12/03 00:46:17;;;;;;;4.70;3.47;;;;;;;2.15;92.62;98182.53;5011481;27;102613;-64
2021/12/03 00:48:49;;;;;;;5.60;4.03;;;;;;;2.10;91.31;98186.28;5008962;28;104056;-65
2021/12/03 00:51:19;;;;;;;4.50;4.07;;;;;;;2.12;91.16;98187.91;4987548;28;103268;-65
2021/12/03 00:53:48;;;;;;;6.60;3.67;;;;;;;2.08;91.24;98180.28;5010865;28;102642;-65
2021/12/03 00:56:20;;;;;;;5.90;4.10;;;;;;;2.14;91.82;98190.41;5009195;28;103885;-65
2021/12/03 00:58:48;;;;;;;5.80;4.10;;;;;;;2.08;91.50;98201.13;5014256;28;104244;-65
2021/12/03 01:01:17;;;;;;;5.60;4.03;;;;;;;2.14;91.91;98211.25;4995979;28;103203;-67
2021/12/03 01:03:47;;;;;;;7.53;4.37;;;;;;;1.89;91.82;98211.53;5007231;28;102905;-66
2021/12/03 01:06:16;;;;;;;6.77;4.50;;;;;;;2.05;92.89;98206.50;5010427;28;103832;-66
2021/12/03 01:08:44;;;;;;;4.40;3.90;;;;;;;2.10;92.23;98210.59;5007757;28;103261;-65
2021/12/03 01:11:13;;;;;;;6.13;4.47;;;;;;;2.13;92.46;98215.63;5009983;28;103283;-65
2021/12/03 01:13:45;;;;;;;5.87;4.47;;;;;;;2.06;92.25;98208.16;5011064;28;102626;-65
2021/12/03 01:16:14;;;;;;;8.17;4.87;;;;;;;1.99;91.88;98223.25;4992595;28;104266;-65
2021/12/03 01:18:45;;;;;;;5.80;4.40;;;;;;;2.00;91.88;98224.06;5014112;28;102958;-65
2021/12/03 01:21:16;;;;;;;4.03;3.50;;;;;;;2.09;91.84;98234.09;5009760;28;103227;-65
2021/12/03 01:23:47;;;;;;;7.70;4.80;;;;;;;2.08;91.77;98237.59;5009483;28;102763;-66
2021/12/03 01:26:16;;;;;;;6.23;4.80;;;;;;;2.10;91.67;98230.56;5012248;28;102610;-67
2021/12/03 01:28:44;;;;;;;4.10;3.43;;;;;;;2.20;91.59;98237.03;4994484;28;103293;-67
2021/12/03 01:31:16;;;;;;;6.27;4.30;;;;;;;2.20;91.29;98243.09;5007762;28;103213;-67
2021/12/03 01:33:45;;;;;;;5.33;3.83;;;;;;;2.13;91.44;98243.47;4991887;28;102744;-66
2021/12/03 01:36:16;;;;;;;6.13;4.83;;;;;;;2.10;91.50;98243.59;4992597;28;103420;-66
2021/12/03 01:38:44;;;;;;;5.17;3.93;;;;;;;2.08;90.94;98245.41;5008617;28;103292;-65
2021/12/03 01:41:13;;;;;;;5.53;4.37;;;;;;;2.07;91.07;98252.41;4992834;28;103368;-65
2021/12/03 01:43:42;;;;;;;9.47;4.67;;;;;;;1.94;90.83;98245.22;5009780;28;102660;-65
2021/12/03 01:46:16;;;;;;;5.80;5.13;;;;;;;1.95;91.08;98241.69;5007598;28;104601;-65
2021/12/03 01:48:47;;;;;;;5.90;4.80;;;;;;;1.93;91.85;98243.53;5008141;28;103250;-65
2021/12/03 01:51:18;;;;;;;5.43;4.60;;;;;;;1.83;91.35;98252.63;5008967;28;103220;-65
2021/12/03 01:53:47;;;;;;;5.17;4.67;;;;;;;1.77;91.35;98243.34;4991625;28;102624;-65
2021/12/03 01:56:18;;;;;;;6.97;4.60;;;;;;;1.72;91.81;98243.56;5007204;28;102720;-65
2021/12/03 01:58:47;;;;;;;8.53;4.80;;;;;;;1.77;91.80;98242.53;5011083;28;104051;-65
2021/12/03 02:01:17;;;;;;;6.37;4.93;;;;;;;1.71;91.93;98244.47;5004947;28;102577;-66
2021/12/03 02:03:47;;;;;;;5.50;4.50;;;;;;;1.61;91.82;98237.97;5012714;28;102858;-66
2021/12/03 02:06:18;;;;;;;5.70;4.67;;;;;;;1.77;92.55;98249.41;5010366;28;104127;-66
2021/12/03 02:08:47;;;;;;;6.27;4.77;;;;;;;1.74;91.39;98252.13;4999959;28;103223;-66
2021/12/03 02:11:16;;;;;;;9.37;6.03;;;;;;;1.69;91.30;98251.50;5010553;28;103266;-66
2021/12/03 02:13:45;;;;;;;6.60;5.33;;;;;;;1.50;92.16;98248.00;5013416;28;102557;-66
2021/12/03 02:16:14;;;;;;;6.63;5.40;;;;;;;1.55;92.24;98248.66;4999600;28;103233;-65
2021/12/03 02:18:44;;;;;;;5.30;4.30;;;;;;;1.58;92.59;98253.72;5008434;28;103857;-65
2021/12/03 02:21:15;;;;;;;6.70;5.20;;;;;;;1.43;92.38;98259.56;5011027;28;102730;-65
2021/12/03 02:23:45;;;;;;;5.33;4.40;;;;;;;1.53;92.20;98260.91;5014254;28;102685;-66
2021/12/03 02:26:14;;;;;;;6.10;4.53;;;;;;;1.55;91.76;98264.28;5010517;28;102732;-65
2021/12/03 02:28:45;;;;;;;5.90;4.73;;;;;;;1.52;92.22;98273.97;5007194;28;104076;-66
2021/12/03 02:31:16;;;;;;;6.27;4.87;;;;;;;1.45;92.10;98277.75;5009594;28;103224;-66
2021/12/03 02:33:44;;;;;;;6.00;5.00;;;;;;;1.39;91.87;98272.81;4994729;28;102663;-66
2021/12/03 02:36:15;;;;;;;5.47;4.80;;;;;;;1.37;92.00;98285.91;4994782;28;102797;-65
2021/12/03 02:38:43;;;;;;;6.70;5.33;;;;;;;1.34;92.72;98290.38;5013028;28;103990;-64
2021/12/03 02:41:12;;;;;;;5.83;4.60;;;;;;;1.36;92.79;98296.34;5013107;28;103325;-65
2021/12/03 02:43:40;;;;;;;7.03;5.13;;;;;;;1.37;92.41;98285.03;5015698;28;104158;-65
2021/12/03 02:46:08;;;;;;;7.67;4.83;;;;;;;1.41;92.58;98297.84;5011933;28;102780;-65
2021/12/03 02:48:37;;;;;;;6.67;4.97;;;;;;;1.31;91.33;98293.94;4991919;28;103444;-66
2021/12/03 02:51:07;;;;;;;5.97;5.13;;;;;;;1.21;92.34;98292.63;5012993;28;103214;-65
2021/12/03 02:53:39;;;;;;;6.53;4.47;;;;;;;1.16;93.00;98292.81;5013322;28;102816;-65
2021/12/03 02:56:09;;;;;;;7.17;5.33;;;;;;;1.20;93.81;98293.56;5009538;28;102718;-65
2021/12/03 02:58:40;;;;;;;8.83;5.40;;;;;;;1.15;93.37;98300.72;5012145;28;104135;-65
2021/12/03 03:01:10;;;;;;;5.73;4.43;;;;;;;1.25;93.08;98302.00;5004646;28;103270;-65
2021/12/03 03:03:38;;;;;;;7.03;5.07;;;;;;;1.18;93.06;98310.97;5010556;28;102624;-65
2021/12/03 03:06:08;;;;;;;7.10;5.23;;;;;;;1.18;92.54;98316.16;4991930;28;102757;-64
2021/12/03 03:08:41;;;;;;;5.90;3.97;;;;;;;1.17;92.75;98311.88;5007128;28;103306;-64
2021/12/03 03:11:09;;;;;;;5.67;4.83;;;;;;;1.14;92.71;98309.41;5009393;28;103188;-64
2021/12/03 03:13:39;;;;;;;7.63;4.77;;;;;;;1.17;92.82;98307.53;5010314;28;103037;-64
2021/12/03 03:16:09;;;;;;;5.80;5.20;;;;;;;1.07;92.41;98310.56;5009938;28;103804;-64
2021/12/03 03:18:38;;;;;;;7.17;5.03;;;;;;;1.02;92.96;98315.94;5011480;28;103990;-64
2021/12/03 03:21:06;;;;;;;6.07;5.10;;;;;;;0.97;93.30;98306.63;5011374;28;103227;-65
2021/12/03 03:23:36;;;;;;;6.77;5.63;;;;;;;0.99;93.79;98307.41;5012064;28;102600;-64
2021/12/03 03:26:06;;;;;;;7.17;5.67;;;;;;;0.92;93.96;98313.78;4993811;28;102668;-64
2021/12/03 03:28:35;;;;;;;7.63;5.10;;;;;;;1.10;93.63;98313.03;5008506;28;103257;-64
2021/12/03 03:31:04;;;;;;;5.67;4.80;;;;;;;1.09;93.74;98319.16;5014511;28;103220;-65
2021/12/03 03:33:32;;;;;;;7.40;4.70;;;;;;;1.11;93.91;98317.34;4993208;28;102809;-66
2021/12/03 03:36:00;;;;;;;6.80;5.47;;;;;;;1.14;94.19;98322.41;4995226;28;102736;-64
2021/12/03 03:38:29;;;;;;;9.07;5.67;;;;;;;1.11;94.17;98317.34;5012375;28;103319;-64
2021/12/03 03:40:57;;;;;;;8.40;4.83;;;;;;;1.10;94.05;98334.69;5011292;28;103198;-64
2021/12/03 03:43:27;;;;;;;5.00;4.50;;;;;;;1.16;94.32;98336.22;4991891;28;102770;-64
2021/12/03 03:45:55;;;;;;;6.93;5.00;;;;;;;1.13;94.66;98336.31;4992310;28;102877;-65
2021/12/03 03:48:24;;;;;;;8.43;5.27;;;;;;;1.26;94.26;98347.09;4992585;28;104001;-64
2021/12/03 03:50:52;;;;;;;10.73;5.90;;;;;;;1.22;94.10;98338.56;5011543;28;103328;-64
2021/12/03 03:53:23;;;;;;;8.07;5.57;;;;;;;1.20;94.01;98348.19;5008378;28;102627;-64
2021/12/03 03:55:51;;;;;;;6.20;5.10;;;;;;;1.17;94.41;98341.38;5014105;28;102685;-64
2021/12/03 03:58:19;;;;;;;8.90;6.23;;;;;;;1.16;94.35;98338.81;5010518;28;103245;-64
2021/12/03 04:00:49;;;;;;;6.27;4.90;;;;;;;1.16;94.22;98342.25;5012822;28;103064;-65
2021/12/03 04:03:17;;;;;;;7.33;5.60;;;;;;;1.14;94.29;98345.84;4992019;28;102967;-64
2021/12/03 04:05:45;;;;;;;9.10;6.00;;;;;;;1.23;94.81;98353.28;5011722;28;103037;-64
2021/12/03 04:08:14;;;;;;;7.63;5.93;;;;;;;1.28;94.82;98359.16;5007881;28;103246;-64
2021/12/03 04:10:42;;;;;;;8.77;5.67;;;;;;;1.36;94.05;98364.03;5015454;28;103252;-64
2021/12/03 04:13:11;;;;;;;7.13;5.23;;;;;;;1.29;93.74;98371.25;4991938;28;102706;-64
2021/12/03 04:15:42;;;;;;;6.60;5.33;;;;;;;1.27;94.08;98367.00;4991996;28;102825;-64
2021/12/03 04:18:11;;;;;;;7.17;5.60;;;;;;;1.30;93.64;98372.94;5011740;28;104182;-65
2021/12/03 04:20:39;;;;;;;8.13;5.67;;;;;;;1.31;93.76;98377.25;5006330;28;103208;-65
2021/12/03 04:23:08;;;;;;;7.67;5.27;;;;;;;1.40;93.91;98378.63;5014891;28;102641;-64
2021/12/03 04:25:36;;;;;;;6.70;5.83;;;;;;;1.37;93.71;98384.81;4995824;28;102772;-64
2021/12/03 04:28:04;;;;;;;5.87;4.60;;;;;;;1.41;92.68;98390.72;4987743;28;104108;-64
2021/12/03 04:30:32;;;;;;;5.37;4.80;;;;;;;1.47;92.89;98395.69;5015154;28;103225;-64
2021/12/03 04:33:01;;;;;;;7.00;5.07;;;;;;;1.54;93.18;98399.75;5005562;28;102661;-64
2021/12/03 04:35:31;;;;;;;8.47;5.97;;;;;;;1.48;92.72;98395.63;5010761;28;102810;-64
2021/12/03 04:37:59;;;;;;;6.50;5.90;;;;;;;1.49;92.33;98391.25;4992862;28;104148;-64
2021/12/03 04:40:31;;;;;;;5.67;4.93;;;;;;;1.54;92.31;98391.94;5014066;28;103276;-64
2021/12/03 04:42:59;;;;;;;8.87;5.80;;;;;;;1.51;91.66;98392.91;5009408;28;102606;-64
2021/12/03 04:45:29;;;;;;;6.33;5.20;;;;;;;1.50;91.19;98399.00;5011159;28;102778;-64
2021/12/03 04:47:58;;;;;;;7.93;5.07;;;;;;;1.56;91.66;98401.38;4985859;28;103219;-64
2021/12/03 04:50:29;;;;;;;7.20;5.57;;;;;;;1.60;91.70;98402.91;5009534;28;103218;-64
2021/12/03 04:52:59;;;;;;;5.27;3.87;;;;;;;1.62;91.93;98411.53;5012557;28;102640;-65
2021/12/03 04:55:30;;;;;;;6.63;5.80;;;;;;;1.66;91.25;98415.69;4988394;28;102805;-67
2021/12/03 04:57:59;;;;;;;5.63;5.03;;;;;;;1.74;90.82;98415.41;4989156;28;103327;-67
2021/12/03 05:00:30;;;;;;;7.23;4.03;;;;;;;1.73;90.73;98414.56;4988531;28;103193;-67
2021/12/03 05:03:00;;;;;;;7.37;5.80;;;;;;;1.64;90.61;98425.34;5005992;28;102629;-67
2021/12/03 05:05:31;;;;;;;6.23;5.63;;;;;;;1.79;90.82;98429.06;5010178;28;102754;-67
2021/12/03 05:08:04;;;;;;;6.03;5.37;;;;;;;1.69;90.27;98423.38;5006362;28;103508;-67
2021/12/03 05:10:34;;;;;;;7.13;5.50;;;;;;;1.77;90.18;98421.31;5010451;28;103282;-64
2021/12/03 05:13:04;;;;;;;8.13;5.70;;;;;;;1.63;89.89;98425.38;5009782;28;102574;-67
2021/12/03 05:15:34;;;;;;;6.10;5.40;;;;;;;1.71;89.87;98418.94;5011550;28;104093;-63
2021/12/03 05:18:03;;;;;;;8.73;5.90;;;;;;;1.60;89.55;98423.75;5009097;28;103208;-64
2021/12/03 05:20:31;;;;;;;5.83;5.23;;;;;;;1.66;89.90;98423.50;4999910;28;104199;-63
2021/12/03 05:23:01;;;;;;;6.53;5.47;;;;;;;1.67;88.70;98424.38;5007003;28;102661;-63
2021/12/03 05:25:33;;;;;;;5.70;5.10;;;;;;;1.75;89.21;98428.34;4987505;28;102717;-65
2021/12/03 05:28:02;;;;;;;5.67;5.07;;;;;;;1.79;88.68;98433.44;5007000;28;103264;-63
2021/12/03 05:30:30;;;;;;;7.83;5.33;;;;;;;1.75;89.40;98446.56;5009118;28;103604;-64
2021/12/03 05:32:59;;;;;;;7.17;5.23;;;;;;;1.74;89.27;98452.69;4990807;28;102713;-65
2021/12/03 05:35:28;;;;;;;6.57;4.90;;;;;;;1.84;89.62;98457.53;5012746;28;102626;-65
2021/12/03 05:38:00;;;;;;;7.93;5.80;;;;;;;1.86;89.27;98450.47;5005235;28;103311;-65
2021/12/03 05:40:28;;;;;;;8.10;5.67;;;;;;;1.93;89.74;98446.72;5009420;28;103319;-65
2021/12/03 05:42:56;;;;;;;8.80;6.77;;;;;;;1.93;89.75;98451.94;5008059;28;102721;-64
2021/12/03 05:45:29;;;;;;;7.67;6.57;;;;;;;1.93;89.51;98454.56;4985575;28;102849;-65
2021/12/03 05:47:58;;;;;;;7.67;6.10;;;;;;;1.74;90.15;98463.09;4996475;28;103259;-65
2021/12/03 05:50:27;;;;;;;6.73;6.07;;;;;;;1.85;90.12;98467.91;4982982;28;103461;-65
2021/12/03 05:52:57;;;;;;;7.40;6.60;;;;;;;1.85;89.86;98464.44;4985841;28;102681;-64
2021/12/03 05:55:27;;;;;;;6.77;5.97;;;;;;;1.90;90.55;98470.31;5006004;28;102653;-64
2021/12/03 05:57:57;;;;;;;6.53;5.10;;;;;;;1.88;89.68;98464.31;5004495;28;104253;-63
2021/12/03 06:00:29;;;;;;;5.67;4.90;;;;;;;1.93;90.06;98472.78;5004997;28;103299;-64
2021/12/03 06:02:59;;;;;;;7.07;5.40;;;;;;;1.85;90.48;98469.66;4988235;28;102832;-64
2021/12/03 06:05:29;;;;;;;7.30;6.17;;;;;;;1.82;90.31;98477.59;5011502;28;102719;-65
2021/12/03 06:08:48;;;;;;;6.87;5.33;;;;;;;1.67;90.14;98492.94;4995881;28;103292;-64
2021/12/03 06:11:31;;;;;;;7.87;7.07;;;;;;;1.77;89.23;98494.25;4988519;28;103083;-64
2021/12/03 06:13:59;;;;;;;7.00;6.17;;;;;;;1.74;88.10;98493.53;4987928;28;103189;-65
2021/12/03 06:16:27;;;;;;;6.37;5.00;;;;;;;1.79;87.63;98498.56;5009578;28;102879;-64
2021/12/03 06:18:57;;;;;;;6.00;4.83;;;;;;;1.67;87.84;98482.50;5007974;28;103985;-63
2021/12/03 06:21:25;;;;;;;6.33;5.47;;;;;;;1.77;87.78;98489.97;5005965;28;103085;-64
2021/12/03 06:23:53;;;;;;;6.77;5.67;;;;;;;1.78;87.59;98484.66;4989663;28;103025;-64
2021/12/03 06:26:22;;;;;;;6.60;6.00;;;;;;;1.75;87.41;98495.22;4978073;28;102812;-64
2021/12/03 06:28:51;;;;;;;5.67;5.10;;;;;;;1.70;86.83;98497.16;5000943;28;103187;-64
2021/12/03 06:31:19;;;;;;;6.93;6.17;;;;;;;1.66;86.76;98501.63;5002043;28;103341;-64
2021/12/03 06:33:48;;;;;;;8.13;5.90;;;;;;;1.48;86.30;98506.72;4979386;28;102609;-64
2021/12/03 06:36:16;;;;;;;6.30;5.70;;;;;;;1.40;86.92;98517.44;5002419;28;103921;-64
2021/12/03 06:38:44;;;;;;;5.77;5.17;;;;;;;1.39;87.00;98513.13;4999729;28;103258;-65
2021/12/03 06:41:12;;;;;;;7.03;6.03;;;;;;;1.41;86.21;98507.84;4966128;28;103033;-65
2021/12/03 06:43:40;;;;;;;5.27;4.20;;;;;;;1.55;86.83;98509.03;5003167;27;102699;-66
2021/12/03 06:46:10;;;;;;;6.63;5.07;;;;;;;1.56;86.16;98515.09;5000539;28;104060;-65
2021/12/03 06:48:38;;;;;;;5.43;4.80;;;;;;;1.54;85.89;98511.69;5004569;28;103293;-66
2021/12/03 06:51:07;;;;;;;5.93;5.33;;;;;;;1.40;85.84;98517.44;4985073;28;103190;-65
2021/12/03 06:53:42;;;;;;;7.57;5.20;;;;;;;1.32;85.02;98522.06;5004704;28;104344;-65
2021/12/03 06:56:19;;;;;;;4.97;4.47;;;;;;;1.39;85.57;98520.94;5004018;28;103081;-65
2021/12/03 06:58:48;;;;;;;5.27;4.77;;;;;;;1.26;83.20;98527.53;5003625;28;103241;-66
2021/12/03 07:01:17;;;;;;;5.10;3.70;;;;;;;1.01;80.78;98532.78;5004444;28;103347;-63
2021/12/03 07:03:46;;;;;;;4.00;3.37;;;;;;;1.18;81.42;98532.16;5000461;28;102912;-65
2021/12/03 07:06:14;;;;;;;4.63;4.20;;;;;;;1.12;81.30;98546.25;5009733;28;102631;-65
2021/12/03 07:08:42;;;;;;;6.50;4.30;;;;;;;1.35;82.60;98540.19;5009087;28;102962;-65
2021/12/03 07:11:10;;;;;;;4.93;4.30;;;;;;;1.29;83.02;98548.25;5012821;28;103679;-65
2021/12/03 07:13:38;;;;;;;6.73;5.47;;;;;;;1.09;82.72;98558.53;4987778;28;102998;-65
2021/12/03 07:16:07;;;;;;;4.53;4.00;;;;;;;1.16;83.40;98558.25;5011673;28;102635;-65
2021/12/03 07:18:38;;;;;;;5.23;4.73;;;;;;;1.24;82.04;98560.56;5008243;28;103259;-64
2021/12/03 07:21:07;;;;;;;5.83;3.90;;;;;;;1.12;81.81;98561.84;5011764;28;103347;-64
2021/12/03 07:23:35;;;;;;;4.37;3.00;;;;;;;1.24;81.53;98563.16;5010456;28;102604;-71
2021/12/03 07:26:03;;;;;;;4.57;3.13;;;;;;;1.37;80.53;98560.97;5009410;28;102747;-64
2021/12/03 07:28:32;;;;;;;6.40;3.20;;;;;;;1.40;79.58;98556.50;5004681;28;103261;-64
2021/12/03 07:31:00;;;;;;;3.00;2.70;;;;;;;1.42;79.62;98562.47;5011456;28;103216;-64
2021/12/03 07:33:31;;;;;;;3.90;2.90;;;;;;;1.40;80.11;98569.50;5008232;28;103123;-64
2021/12/03 07:36:00;;;;;;;4.67;3.83;;;;;;;1.28;81.39;98574.31;5005495;28;104187;-64
2021/12/03 07:38:28;;;;;;;4.40;4.00;;;;;;;1.40;81.91;98585.13;5011566;28;104380;-64
2021/12/03 07:40:56;;;;;;;6.47;4.33;;;;;;;1.47;81.97;98578.78;5009610;28;103320;-64
2021/12/03 07:43:24;;;;;;;5.23;3.90;;;;;;;1.82;82.00;98594.81;4990068;28;102788;-64
2021/12/03 07:45:53;;;;;;;5.87;4.30;;;;;;;1.66;81.43;98584.97;5010578;28;102882;-64
2021/12/03 07:48:23;;;;;;;5.03;4.13;;;;;;;1.63;82.11;98577.28;5001019;28;103312;-64
2021/12/03 07:50:53;;;;;;;5.40;4.90;;;;;;;1.61;82.12;98581.69;5010417;28;103213;-64
2021/12/03 07:53:23;;;;;;;5.37;4.70;;;;;;;2.01;81.62;98586.22;5013899;28;102734;-64
2021/12/03 07:55:53;;;;;;;4.37;3.90;;;;;;;2.43;78.72;98585.38;5010928;28;103408;-64
2021/12/03 07:58:22;;;;;;;5.67;4.33;;;;;;;2.51;77.49;98591.97;5012367;28;103390;-64
2021/12/03 08:00:51;;;;;;;4.53;3.80;;;;;;;2.67;77.36;98593.03;5010417;28;103126;-65
2021/12/03 08:03:21;;;;;;;4.47;3.60;;;;;;;2.28;76.31;98594.66;5010765;28;102980;-65
2021/12/03 08:05:49;;;;;;;3.63;3.33;;;;;;;2.62;77.29;98592.38;5011109;28;102660;-65
2021/12/03 08:08:22;;;;;;;4.67;3.40;;;;;;;3.20;76.19;98589.88;4988778;28;104237;-65
2021/12/03 08:10:55;;;;;;;4.77;4.23;;;;;;;3.19;75.75;98586.41;5009756;28;103327;-64
2021/12/03 08:13:23;;;;;;;5.20;4.57;;;;;;;3.47;74.47;98594.69;5011312;28;102983;-64
2021/12/03 08:15:51;;;;;;;5.90;4.00;;;;;;;2.98;75.09;98592.56;4992937;28;102791;-65
2021/12/03 08:18:20;;;;;;;6.37;3.53;;;;;;;3.10;75.26;98591.16;5010559;28;103962;-65
2021/12/03 08:20:49;;;;;;;4.63;3.87;;;;;;;3.51;73.74;98592.78;5008637;28;103348;-65
2021/12/03 08:23:17;;;;;;;4.33;3.63;;;;;;;3.82;72.83;98598.28;5011485;28;102745;-65
2021/12/03 08:25:46;;;;;;;4.97;3.73;;;;;;;3.70;72.85;98593.66;5010214;28;102860;-65
2021/12/03 08:28:18;;;;;;;5.67;5.07;;;;;;;3.25;72.69;98596.59;5009238;28;103219;-65
2021/12/03 08:30:47;;;;;;;5.90;4.20;;;;;;;3.52;71.02;98591.88;4988241;28;103200;-65
2021/12/03 08:33:17;;;;;;;3.80;3.40;;;;;;;4.09;71.98;98586.53;4993347;28;102650;-65
2021/12/03 08:35:45;;;;;;;4.30;3.53;;;;;;;3.71;70.14;98589.25;5010863;28;104376;-65
2021/12/03 08:38:14;;;;;;;3.40;3.10;;;;;;;4.19;70.03;98586.06;4991601;28;103351;-65
2021/12/03 08:41:05;;;;;;;4.00;2.70;;;;;;;3.80;70.31;98578.38;4993633;28;102985;-65
2021/12/03 08:43:34;;;;;;;2.83;2.57;;;;;;;4.43;69.61;98570.06;5008321;28;102665;-65
2021/12/03 08:46:09;;;;;;;5.83;3.40;;;;;;;4.39;68.69;98588.56;4991659;28;102815;-65
2021/12/03 08:48:43;;;;;;;3.10;2.43;;;;;;;4.84;70.20;98586.28;5010599;28;103243;-65
2021/12/03 08:51:31;;;;;;;2.63;2.43;;;;;;;5.00;67.47;98581.94;4995576;28;103340;-65
2021/12/03 08:56:45;;;;;;;4.07;3.30;;;;;;;4.43;68.42;98585.75;5012618;28;102799;-65
2021/12/03 08:59:15;;;;;;;3.40;3.10;;;;;;;4.44;69.36;98583.94;5012330;28;104125;-65
2021/12/03 09:01:46;;;;;;;3.97;3.07;;;;;;;4.56;67.95;98592.06;5010282;28;103222;-65
2021/12/03 09:04:14;;;;;;;3.37;2.80;;;;;;;4.86;68.91;98597.50;5008956;28;102954;-65
2021/12/03 09:06:43;;;;;;;3.73;2.50;;;;;;;4.78;68.10;98590.97;5009677;28;102652;-65
2021/12/03 09:09:11;;;;;;;3.47;3.10;;;;;;;4.23;69.08;98598.94;4991573;28;103117;-65
2021/12/03 09:11:40;;;;;;;3.40;2.90;;;;;;;4.48;68.78;98599.44;5010460;28;103188;-66
2021/12/03 09:14:14;;;;;;;3.07;2.43;;;;;;;4.59;68.29;98593.66;5005238;28;102609;-65
2021/12/03 09:16:46;;;;;;;2.77;2.47;;;;;;;4.86;67.04;98605.34;5009263;28;103835;-65
2021/12/03 09:19:20;;;;;;;3.10;2.80;;;;;;;4.64;66.98;98594.28;5006086;28;103213;-64
2021/12/03 09:21:48;;;;;;;2.77;2.57;;;;;;;4.65;67.51;98594.22;5009261;28;103335;-64
2021/12/03 09:24:19;;;;;;;3.17;2.40;;;;;;;4.69;67.70;98597.50;4983205;28;102729;-65
2021/12/03 09:26:47;;;;;;;3.67;2.43;;;;;;;4.39;67.32;98599.03;5004345;28;102888;-65
2021/12/03 09:29:23;;;;;;;3.67;2.10;;;;;;;4.32;69.21;98597.66;5009572;28;103267;-65
2021/12/03 09:31:53;;;;;;;2.17;1.97;;;;;;;4.04;67.83;98603.38;5006502;28;103447;-65
2021/12/03 09:34:30;;;;;;;3.40;2.07;;;;;;;4.03;67.62;98604.28;5007654;28;102641;-65
2021/12/03 09:36:59;;;;;;;3.23;1.87;;;;;;;3.71;69.25;98605.78;4992353;28;102741;-65
2021/12/03 09:39:27;;;;;;;2.60;1.60;;;;;;;3.98;69.96;98603.66;5007077;28;103295;-65
2021/12/03 09:41:58;;;;;;;2.73;1.70;;;;;;;4.20;68.37;98600.84;5005278;28;103375;-65
2021/12/03 09:44:30;;;;;;;3.17;2.20;;;;;;;4.05;67.39;98602.44;5008789;28;102719;-66
2021/12/03 09:47:01;;;;;;;3.43;2.40;;;;;;;3.97;68.71;98594.97;5008770;28;104265;-65
2021/12/03 09:49:36;;;;;;;5.20;2.10;;;;;;;4.35;67.82;98597.50;5007263;28;104042;-65
2021/12/03 09:52:16;;;;;;;2.30;1.70;;;;;;;4.18;67.84;98592.25;5006025;28;103237;-65
2021/12/03 09:54:48;;;;;;;3.53;1.80;;;;;;;4.60;66.50;98582.28;5008238;28;102677;-65
2021/12/03 09:57:27;;;;;;;2.07;1.80;;;;;;;4.26;66.94;98577.03;5008292;28;102625;-65
2021/12/03 10:00:15;;;;;;;2.13;1.63;;;;;;;4.54;67.32;98574.75;5005836;28;103264;-65
2021/12/03 10:14:31;;;;;;;2.90;1.90;;;;;;;4.92;66.16;98572.78;4936183;28;103221;-65
2021/12/03 10:20:17;;;;;;;5.43;2.00;;;;;;;4.90;64.61;98570.25;4993094;28;103040;-66
2021/12/03 10:28:57;;;;;;;4.50;1.80;;;;;;;5.46;65.37;98566.44;5009932;28;102608;-65
2021/12/03 10:37:18;;;;;;;3.60;2.43;;;;;;;5.73;63.46;98543.94;5010369;28;103184;-66
2021/12/03 10:39:56;;;;;;;3.17;2.33;;;;;;;5.49;62.72;98551.41;5011020;28;102727;-66
2021/12/03 10:42:53;;;;;;;3.50;2.23;;;;;;;5.55;63.64;98547.59;5010434;28;102685;-65
2021/12/03 10:45:32;;;;;;;6.37;2.37;;;;;;;5.77;64.57;98548.97;5009120;28;103249;-65
2021/12/03 10:48:14;;;;;;;2.87;2.40;;;;;;;5.80;62.70;98542.69;5008581;28;103382;-65
2021/12/03 10:50:50;;;;;;;2.90;2.50;;;;;;;5.83;63.77;98553.00;5011627;28;103405;-65
2021/12/03 10:53:30;;;;;;;4.73;2.43;;;;;;;5.83;63.21;98547.78;4993396;28;102697;-65
2021/12/03 10:59:05;;;;;;;3.00;2.30;;;;;;;5.98;62.82;98538.25;5010059;28;102615;-64
2021/12/03 11:07:44;;;;;;;3.33;2.37;;;;;;;5.89;63.26;98520.41;5010755;28;103235;-64
2021/12/03 11:27:59;;;;;;;3.80;2.50;;;;;;;5.61;63.67;98489.59;5011888;28;103264;-63
2021/12/03 12:44:48;;;;;;;2.43;2.20;;;;;;;5.50;64.45;98416.00;4920400;28;103243;-64
2021/12/03 14:01:21;;;;;;;3.43;2.10;;;;;;;4.45;68.01;98374.63;5006739;28;103229;-64
2021/12/03 14:41:31;;;;;;;2.43;1.40;;;;;;;4.16;67.29;98350.91;5092753;27;103193;-63
2021/12/03 14:44:12;;;;;;;1.53;1.20;;;;;;;4.07;66.70;98350.44;5093165;27;102744;-63
2021/12/03 14:47:01;;;;;;;3.07;1.90;;;;;;;4.04;67.46;98342.75;5075026;27;103188;-63
2021/12/03 14:52:26;;;;;;;2.80;1.40;;;;;;;3.88;67.19;98344.47;5092321;27;103208;-63
2021/12/03 14:54:59;;;;;;;1.70;1.20;;;;;;;3.93;67.34;98344.28;5069718;27;102886;-64
2021/12/03 14:57:36;;;;;;;3.03;1.50;;;;;;;3.85;67.36;98347.25;5091659;27;102736;-63
2021/12/03 15:00:24;;;;;;;6.10;1.57;;;;;;;3.82;67.74;98342.19;5088849;27;104211;-63
2021/12/03 15:08:54;;;;;;;4.43;1.50;;;;;;;4.03;68.50;98335.88;4997775;28;102879;-63
2021/12/03 15:14:49;;;;;;;2.17;1.80;;;;;;;3.93;68.59;98342.47;5087483;27;103221;-62
2021/12/03 15:23:09;;;;;;;5.63;2.33;;;;;;;3.85;69.65;98333.34;5076628;27;104245;-64
2021/12/03 15:25:48;;;;;;;4.23;2.30;;;;;;;3.74;69.92;98328.66;5055123;27;103189;-64
2021/12/03 15:34:21;;;;;;;2.03;1.70;;;;;;;3.78;70.08;98331.97;5071620;27;103183;-64
2021/12/03 15:37:07;;;;;;;2.43;2.00;;;;;;;3.76;70.30;98333.81;5057890;27;103266;-64
2021/12/03 15:39:52;;;;;;;2.83;2.20;;;;;;;3.80;70.80;98328.34;5080034;27;102710;-64
2021/12/03 16:05:11;;;;;;;2.43;2.00;;;;;;;3.55;72.56;98308.75;5050056;27;104078;-63
2021/12/03 16:08:03;;;;;;;2.57;1.80;;;;;;;3.51;71.81;98306.31;5048726;27;104044;-63
2021/12/03 16:10:40;;;;;;;3.90;2.57;;;;;;;3.37;72.14;98302.69;5073974;27;103269;-63
2021/12/03 16:13:19;;;;;;;3.50;2.03;;;;;;;3.35;73.00;98304.53;5067830;27;102512;-63
2021/12/03 16:16:35;;;;;;;3.90;2.80;;;;;;;3.39;72.60;98308.69;5051105;27;102779;-63
2021/12/03 16:21:53;;;;;;;4.33;2.90;;;;;;;3.34;73.08;98303.69;5064621;27;103277;-63
2021/12/03 16:24:46;;;;;;;3.83;2.50;;;;;;;3.35;73.29;98302.78;5052456;27;102698;-63
2021/12/03 16:44:01;;;;;;;6.33;3.20;;;;;;;3.09;75.82;98268.44;5068299;27;102986;-63
2021/12/03 16:46:56;;;;;;;6.13;3.43;;;;;;;3.07;75.54;98275.47;5069629;27;102563;-63
2021/12/03 16:52:17;;;;;;;6.33;3.47;;;;;;;3.04;75.75;98283.47;5054124;27;104073;-63
2021/12/03 16:55:06;;;;;;;3.93;3.10;;;;;;;3.05;75.29;98283.41;5056599;27;103085;-63
2021/12/03 16:57:36;;;;;;;3.43;3.10;;;;;;;3.06;75.07;98286.84;5073807;27;102632;-62
2021/12/03 17:00:16;;;;;;;6.67;2.80;;;;;;;3.04;75.96;98278.22;5076529;27;102681;-62
2021/12/03 17:02:49;;;;;;;7.67;3.43;;;;;;;3.12;75.76;98260.44;5072441;27;103731;-62
2021/12/03 17:14:08;;;;;;;4.67;3.00;;;;;;;3.14;75.68;98264.69;5106598;27;102633;-62